createdAt,value
2016-12-15T00:00:20.760Z,964.06
2016-12-15T00:01:20.618Z,964.07
2016-12-15T00:02:20.606Z,964.08
2016-12-15T00:03:20.591Z,964.15
2016-12-15T00:04:20.690Z,964.15
2016-12-15T00:05:20.566Z,964.15
2016-12-15T00:06:20.553Z,964.15
2016-12-15T00:07:20.539Z,964.15
2016-12-15T00:08:20.527Z,964.17
2016-12-15T00:09:20.512Z,964.16
2016-12-15T00:10:20.500Z,964.19
2016-12-15T00:11:20.485Z,964.2
2016-12-15T00:12:20.472Z,964.22
2016-12-15T00:13:20.459Z,964.2
2016-12-15T00:14:20.591Z,964.2
2016-12-15T00:15:20.431Z,964.21
2016-12-15T00:16:20.420Z,964.18
2016-12-15T00:17:20.406Z,964.25
2016-12-15T00:18:20.392Z,964.18
2016-12-15T00:19:20.379Z,964.16
2016-12-15T00:20:20.509Z,964.2
2016-12-15T00:21:20.352Z,964.17
2016-12-15T00:22:20.631Z,964.2
2016-12-15T00:23:20.326Z,964.21
2016-12-15T00:24:20.327Z,964.19
2016-12-15T00:25:20.299Z,964.19
2016-12-15T00:26:20.287Z,964.17
2016-12-15T00:27:20.273Z,964.2
2016-12-15T00:28:20.260Z,964.15
2016-12-15T00:29:20.247Z,964.17
2016-12-15T00:30:20.233Z,964.2
2016-12-15T00:31:20.220Z,964.22
2016-12-15T00:32:20.205Z,964.17
2016-12-15T00:33:20.307Z,964.23
2016-12-15T00:34:20.179Z,964.23
2016-12-15T00:35:20.167Z,964.26
2016-12-15T00:36:20.291Z,964.24
2016-12-15T00:37:20.139Z,964.22
2016-12-15T00:38:20.127Z,964.29
2016-12-15T00:39:20.113Z,964.27
2016-12-15T00:40:20.099Z,964.28
2016-12-15T00:41:20.086Z,964.28
2016-12-15T00:42:20.074Z,964.25
2016-12-15T00:43:20.060Z,964.28
2016-12-15T00:44:20.183Z,964.29
2016-12-15T00:45:20.033Z,964.29
2016-12-15T00:46:20.020Z,964.3
2016-12-15T00:47:20.006Z,964.31
2016-12-15T00:48:19.993Z,964.3
2016-12-15T00:49:19.979Z,964.29
2016-12-15T00:50:19.966Z,964.32
2016-12-15T00:51:19.952Z,964.3
2016-12-15T00:52:20.181Z,964.3
2016-12-15T00:53:19.926Z,964.29
2016-12-15T00:54:19.912Z,964.35
2016-12-15T00:55:19.899Z,964.27
2016-12-15T00:56:20.019Z,964.29
2016-12-15T00:57:19.873Z,964.3
2016-12-15T00:58:19.858Z,964.32
2016-12-15T00:59:20.040Z,964.31
2016-12-15T01:00:19.831Z,964.3
2016-12-15T01:01:19.819Z,964.33
2016-12-15T01:02:19.827Z,964.34
2016-12-15T01:03:19.792Z,964.3
2016-12-15T01:04:19.778Z,964.34
2016-12-15T01:05:19.870Z,964.33
2016-12-15T01:06:19.750Z,964.38
2016-12-15T01:07:19.737Z,964.33
2016-12-15T01:08:19.856Z,964.32
2016-12-15T01:09:19.710Z,964.28
2016-12-15T01:10:19.843Z,964.29
2016-12-15T01:11:19.683Z,964.31
2016-12-15T01:12:19.669Z,964.33
2016-12-15T01:13:19.796Z,964.29
2016-12-15T01:14:19.643Z,964.28
2016-12-15T01:15:19.630Z,964.27
2016-12-15T01:16:19.616Z,964.29
2016-12-15T01:17:19.603Z,964.33
2016-12-15T01:18:19.590Z,964.33
2016-12-15T01:19:19.577Z,964.37
2016-12-15T01:20:19.562Z,964.35
2016-12-15T01:21:19.548Z,964.39
2016-12-15T01:22:19.537Z,964.41
2016-12-15T01:23:19.521Z,964.4
2016-12-15T01:24:19.508Z,964.42
2016-12-15T01:25:19.495Z,964.45
2016-12-15T01:26:19.482Z,964.45
2016-12-15T01:27:19.468Z,964.44
2016-12-15T01:28:19.455Z,964.43
2016-12-15T01:29:19.442Z,964.47
2016-12-15T01:30:19.428Z,964.45
2016-12-15T01:31:19.414Z,964.47
2016-12-15T01:32:19.400Z,964.47
2016-12-15T01:33:19.388Z,964.41
2016-12-15T01:34:19.374Z,964.46
2016-12-15T01:35:19.361Z,964.43
2016-12-15T01:36:19.346Z,964.39
2016-12-15T01:37:19.334Z,964.38
2016-12-15T01:38:19.320Z,964.39
2016-12-15T01:39:19.308Z,964.4
2016-12-15T01:40:19.294Z,964.4
2016-12-15T01:41:19.281Z,964.36
2016-12-15T01:42:19.267Z,964.38
2016-12-15T01:43:19.254Z,964.4
2016-12-15T01:44:19.239Z,964.38
2016-12-15T01:45:19.227Z,964.38
2016-12-15T01:46:19.213Z,964.4
2016-12-15T01:47:19.199Z,964.37
2016-12-15T01:48:19.186Z,964.37
2016-12-15T01:49:19.172Z,964.35
2016-12-15T01:50:19.161Z,964.37
2016-12-15T01:51:19.146Z,964.37
2016-12-15T01:52:19.133Z,964.35
2016-12-15T01:53:19.118Z,964.35
2016-12-15T01:54:19.105Z,964.35
2016-12-15T01:55:19.092Z,964.31
2016-12-15T01:56:19.078Z,964.33
2016-12-15T01:57:19.065Z,964.37
2016-12-15T01:58:19.052Z,964.35
2016-12-15T01:59:19.039Z,964.33
2016-12-15T02:00:19.025Z,964.38
2016-12-15T02:01:19.011Z,964.35
2016-12-15T02:02:18.998Z,964.38
2016-12-15T02:03:18.985Z,964.38
2016-12-15T02:04:18.971Z,964.38
2016-12-15T02:05:19.004Z,964.42
2016-12-15T02:06:18.944Z,964.45
2016-12-15T02:07:18.930Z,964.41
2016-12-15T02:08:18.916Z,964.43
2016-12-15T02:09:18.904Z,964.4
2016-12-15T02:10:18.890Z,964.39
2016-12-15T02:11:18.876Z,964.4
2016-12-15T02:12:18.862Z,964.36
2016-12-15T02:13:18.850Z,964.38
2016-12-15T02:14:18.836Z,964.4
2016-12-15T02:15:18.822Z,964.38
2016-12-15T02:16:18.808Z,964.38
2016-12-15T02:17:18.797Z,964.42
2016-12-15T02:18:18.780Z,964.4
2016-12-15T02:19:18.774Z,964.38
2016-12-15T02:20:18.755Z,964.37
2016-12-15T02:21:18.741Z,964.41
2016-12-15T02:22:18.727Z,964.38
2016-12-15T02:23:18.713Z,964.37
2016-12-15T02:24:18.718Z,964.37
2016-12-15T02:25:18.687Z,964.37
2016-12-15T02:26:18.674Z,964.39
2016-12-15T02:27:18.659Z,964.33
2016-12-15T02:28:18.647Z,964.35
2016-12-15T02:29:18.631Z,964.37
2016-12-15T02:30:18.618Z,964.35
2016-12-15T02:31:18.605Z,964.37
2016-12-15T02:32:18.593Z,964.37
2016-12-15T02:33:18.577Z,964.34
2016-12-15T02:34:18.563Z,964.35
2016-12-15T02:35:18.551Z,964.35
2016-12-15T02:36:18.537Z,964.36
2016-12-15T02:37:18.522Z,964.33
2016-12-15T02:38:18.510Z,964.31
2016-12-15T02:39:18.495Z,964.37
2016-12-15T02:40:18.481Z,964.32
2016-12-15T02:41:18.467Z,964.35
2016-12-15T02:42:18.454Z,964.3
2016-12-15T02:43:18.442Z,964.37
2016-12-15T02:44:18.426Z,964.35
2016-12-15T02:45:18.412Z,964.36
2016-12-15T02:46:18.399Z,964.35
2016-12-15T02:47:18.385Z,964.36
2016-12-15T02:48:18.371Z,964.31
2016-12-15T02:49:18.358Z,964.31
2016-12-15T02:50:18.344Z,964.28
2016-12-15T02:51:18.330Z,964.27
2016-12-15T02:52:18.315Z,964.32
2016-12-15T02:53:18.301Z,964.31
2016-12-15T02:54:18.287Z,964.31
2016-12-15T02:55:18.272Z,964.3
2016-12-15T02:56:18.259Z,964.31
2016-12-15T02:57:18.245Z,964.32
2016-12-15T02:58:18.230Z,964.29
2016-12-15T02:59:18.216Z,964.26
2016-12-15T03:00:18.203Z,964.32
2016-12-15T03:01:18.188Z,964.26
2016-12-15T03:02:18.173Z,964.28
2016-12-15T03:03:18.159Z,964.23
2016-12-15T03:04:18.147Z,964.25
2016-12-15T03:05:18.132Z,964.25
2016-12-15T03:06:18.117Z,964.23
2016-12-15T03:07:18.102Z,964.18
2016-12-15T03:08:18.089Z,964.22
2016-12-15T03:09:18.073Z,964.23
2016-12-15T03:10:18.060Z,964.26
2016-12-15T03:11:18.046Z,964.23
2016-12-15T03:12:18.033Z,964.25
2016-12-15T03:13:18.016Z,964.19
2016-12-15T03:14:18.002Z,964.22
2016-12-15T03:15:17.988Z,964.23
2016-12-15T03:16:17.974Z,964.24
2016-12-15T03:17:17.960Z,964.22
2016-12-15T03:18:17.945Z,964.29
2016-12-15T03:19:17.930Z,964.29
2016-12-15T03:20:17.916Z,964.32
2016-12-15T03:21:17.903Z,964.29
2016-12-15T03:22:17.888Z,964.36
2016-12-15T03:23:17.873Z,964.29
2016-12-15T03:24:17.858Z,964.34
2016-12-15T03:25:17.844Z,964.38
2016-12-15T03:26:17.830Z,964.38
2016-12-15T03:27:17.816Z,964.35
2016-12-15T03:28:17.800Z,964.37
2016-12-15T03:29:17.787Z,964.37
2016-12-15T03:30:17.773Z,964.35
2016-12-15T03:31:17.758Z,964.33
2016-12-15T03:32:17.743Z,964.35
2016-12-15T03:33:17.729Z,964.34
2016-12-15T03:34:17.715Z,964.33
2016-12-15T03:35:17.699Z,964.32
2016-12-15T03:36:17.685Z,964.29
2016-12-15T03:37:17.671Z,964.32
2016-12-15T03:38:17.657Z,964.33
2016-12-15T03:39:17.641Z,964.36
2016-12-15T03:40:17.628Z,964.35
2016-12-15T03:41:17.612Z,964.35
2016-12-15T03:42:17.598Z,964.32
2016-12-15T03:43:17.583Z,964.32
2016-12-15T03:44:17.570Z,964.36
2016-12-15T03:45:17.554Z,964.38
2016-12-15T03:46:17.539Z,964.35
2016-12-15T03:47:17.524Z,964.38
2016-12-15T03:48:17.510Z,964.34
2016-12-15T03:49:17.496Z,964.33
2016-12-15T03:50:17.482Z,964.35
2016-12-15T03:51:17.466Z,964.33
2016-12-15T03:52:17.452Z,964.35
2016-12-15T03:53:17.435Z,964.35
2016-12-15T03:54:17.422Z,964.33
2016-12-15T03:55:17.406Z,964.33
2016-12-15T03:56:17.392Z,964.32
2016-12-15T03:57:17.377Z,964.38
2016-12-15T03:58:17.362Z,964.31
2016-12-15T03:59:17.347Z,964.31
2016-12-15T04:00:17.335Z,964.33
2016-12-15T04:01:17.318Z,964.38
2016-12-15T04:02:17.303Z,964.34
2016-12-15T04:03:17.287Z,964.37
2016-12-15T04:04:17.273Z,964.34
2016-12-15T04:05:17.258Z,964.34
2016-12-15T04:06:17.243Z,964.28
2016-12-15T04:07:17.228Z,964.28
2016-12-15T04:08:17.212Z,964.26
2016-12-15T04:09:17.198Z,964.28
2016-12-15T04:10:17.182Z,964.3
2016-12-15T04:11:17.168Z,964.31
2016-12-15T04:12:17.151Z,964.29
2016-12-15T04:13:17.137Z,964.28
2016-12-15T04:14:17.121Z,964.31
2016-12-15T04:15:17.105Z,964.28
2016-12-15T04:16:17.092Z,964.26
2016-12-15T04:17:17.075Z,964.29
2016-12-15T04:18:17.061Z,964.27
2016-12-15T04:19:17.045Z,964.3
2016-12-15T04:20:17.029Z,964.29
2016-12-15T04:21:17.015Z,964.28
2016-12-15T04:22:16.999Z,964.29
2016-12-15T04:23:16.983Z,964.32
2016-12-15T04:24:16.968Z,964.25
2016-12-15T04:25:16.956Z,964.3
2016-12-15T04:26:16.936Z,964.34
2016-12-15T04:27:16.921Z,964.26
2016-12-15T04:28:16.906Z,964.27
2016-12-15T04:29:16.890Z,964.26
2016-12-15T04:30:16.873Z,964.27
2016-12-15T04:31:16.858Z,964.24
2016-12-15T04:32:16.841Z,964.27
2016-12-15T04:33:16.826Z,964.3
2016-12-15T04:34:16.809Z,964.32
2016-12-15T04:35:16.796Z,964.34
2016-12-15T04:36:16.778Z,964.31
2016-12-15T04:37:16.761Z,964.34
2016-12-15T04:38:16.747Z,964.4
2016-12-15T04:39:16.730Z,964.36
2016-12-15T04:40:16.715Z,964.35
2016-12-15T04:41:16.699Z,964.37
2016-12-15T04:42:16.681Z,964.36
2016-12-15T04:43:16.666Z,964.35
2016-12-15T04:44:16.650Z,964.33
2016-12-15T04:45:16.632Z,964.29
2016-12-15T04:46:16.617Z,964.31
2016-12-15T04:47:16.601Z,964.34
2016-12-15T04:48:16.585Z,964.28
2016-12-15T04:49:16.570Z,964.31
2016-12-15T04:50:16.552Z,964.35
2016-12-15T04:51:16.538Z,964.33
2016-12-15T04:52:16.520Z,964.34
2016-12-15T04:53:16.502Z,964.32
2016-12-15T04:54:16.487Z,964.35
2016-12-15T04:55:16.470Z,964.35
2016-12-15T04:56:16.455Z,964.41
2016-12-15T04:57:16.438Z,964.36
2016-12-15T04:58:16.423Z,964.41
2016-12-15T04:59:16.405Z,964.41
2016-12-15T05:00:16.389Z,964.41
2016-12-15T05:01:16.371Z,964.45
2016-12-15T05:02:16.356Z,964.44
2016-12-15T05:03:16.339Z,964.38
2016-12-15T05:04:16.324Z,964.4
2016-12-15T05:05:16.307Z,964.42
2016-12-15T05:06:16.289Z,964.4
2016-12-15T05:07:16.273Z,964.41
2016-12-15T05:08:16.259Z,964.38
2016-12-15T05:09:16.242Z,964.42
2016-12-15T05:10:16.224Z,964.38
2016-12-15T05:11:16.209Z,964.39
2016-12-15T05:12:16.192Z,964.4
2016-12-15T05:13:16.175Z,964.44
2016-12-15T05:14:16.157Z,964.44
2016-12-15T05:15:16.142Z,964.46
2016-12-15T05:16:16.126Z,964.44
2016-12-15T05:17:16.108Z,964.44
2016-12-15T05:18:16.092Z,964.41
2016-12-15T05:19:16.076Z,964.45
2016-12-15T05:20:16.059Z,964.48
2016-12-15T05:21:16.042Z,964.42
2016-12-15T05:22:16.025Z,964.42
2016-12-15T05:23:16.013Z,964.44
2016-12-15T05:24:15.993Z,964.46
2016-12-15T05:25:15.974Z,964.45
2016-12-15T05:26:15.958Z,964.45
2016-12-15T05:27:15.943Z,964.44
2016-12-15T05:28:15.924Z,964.49
2016-12-15T05:29:15.908Z,964.48
2016-12-15T05:30:15.893Z,964.46
2016-12-15T05:31:15.876Z,964.44
2016-12-15T05:32:15.859Z,964.45
2016-12-15T05:33:15.841Z,964.42
2016-12-15T05:34:15.825Z,964.43
2016-12-15T05:35:15.809Z,964.43
2016-12-15T05:36:15.790Z,964.41
2016-12-15T05:37:15.775Z,964.45
2016-12-15T05:38:15.759Z,964.48
2016-12-15T05:39:15.741Z,964.41
2016-12-15T05:40:15.725Z,964.49
2016-12-15T05:41:15.708Z,964.47
2016-12-15T05:42:15.692Z,964.43
2016-12-15T05:43:15.673Z,964.46
2016-12-15T05:44:15.658Z,964.44
2016-12-15T05:45:15.645Z,964.46
2016-12-15T05:46:15.624Z,964.48
2016-12-15T05:47:15.609Z,964.44
2016-12-15T05:48:15.590Z,964.49
2016-12-15T05:49:15.574Z,964.47
2016-12-15T05:50:15.556Z,964.48
2016-12-15T05:51:15.540Z,964.53
2016-12-15T05:52:15.525Z,964.47
2016-12-15T05:53:15.507Z,964.51
2016-12-15T05:54:15.489Z,964.51
2016-12-15T05:55:15.474Z,964.53
2016-12-15T05:56:15.456Z,964.5
2016-12-15T05:57:15.441Z,964.51
2016-12-15T05:58:15.424Z,964.55
2016-12-15T05:59:15.407Z,964.56
2016-12-15T06:00:15.390Z,964.54
2016-12-15T06:01:15.373Z,964.58
2016-12-15T06:02:15.357Z,964.57
2016-12-15T06:03:15.339Z,964.58
2016-12-15T06:04:15.324Z,964.59
2016-12-15T06:05:15.306Z,964.58
2016-12-15T06:06:15.289Z,964.56
2016-12-15T06:07:15.274Z,964.59
2016-12-15T06:08:15.255Z,964.6
2016-12-15T06:09:15.254Z,964.64
2016-12-15T06:10:15.222Z,964.67
2016-12-15T06:11:15.206Z,964.59
2016-12-15T06:12:15.188Z,964.57
2016-12-15T06:13:15.181Z,964.6
2016-12-15T06:14:15.156Z,964.62
2016-12-15T06:15:15.138Z,964.56
2016-12-15T06:16:15.120Z,964.56
2016-12-15T06:17:15.105Z,964.57
2016-12-15T06:18:15.086Z,964.58
2016-12-15T06:19:15.069Z,964.61
2016-12-15T06:20:15.053Z,964.54
2016-12-15T06:21:15.036Z,964.52
2016-12-15T06:22:15.019Z,964.55
2016-12-15T06:23:15.002Z,964.49
2016-12-15T06:24:14.985Z,964.52
2016-12-15T06:25:14.969Z,964.5
2016-12-15T06:26:14.954Z,964.51
2016-12-15T06:27:14.934Z,964.53
2016-12-15T06:28:14.917Z,964.48
2016-12-15T06:29:14.901Z,964.52
2016-12-15T06:30:14.883Z,964.53
2016-12-15T06:31:14.866Z,964.52
2016-12-15T06:32:14.849Z,964.51
2016-12-15T06:33:14.832Z,964.49
2016-12-15T06:34:14.815Z,964.51
2016-12-15T06:35:14.800Z,964.51
2016-12-15T06:36:14.782Z,964.48
2016-12-15T06:37:14.765Z,964.53
2016-12-15T06:38:14.749Z,964.57
2016-12-15T06:39:14.731Z,964.6
2016-12-15T06:40:14.716Z,964.58
2016-12-15T06:41:14.696Z,964.63
2016-12-15T06:42:14.679Z,964.63
2016-12-15T06:43:14.662Z,964.67
2016-12-15T06:44:14.645Z,964.57
2016-12-15T06:45:14.627Z,964.62
2016-12-15T06:46:14.611Z,964.63
2016-12-15T06:47:14.594Z,964.7
2016-12-15T06:48:14.577Z,964.64
2016-12-15T06:49:14.560Z,964.64
2016-12-15T06:50:14.542Z,964.62
2016-12-15T06:51:14.527Z,964.64
2016-12-15T06:52:14.526Z,964.65
2016-12-15T06:53:14.491Z,964.66
2016-12-15T06:54:14.474Z,964.64
2016-12-15T06:55:14.457Z,964.68
2016-12-15T06:56:14.439Z,964.68
2016-12-15T06:57:14.422Z,964.73
2016-12-15T06:58:14.405Z,964.7
2016-12-15T06:59:14.389Z,964.74
2016-12-15T07:00:14.370Z,964.72
2016-12-15T07:01:14.354Z,964.76
2016-12-15T07:02:14.336Z,964.77
2016-12-15T07:03:14.319Z,964.74
2016-12-15T07:04:14.302Z,964.75
2016-12-15T07:05:14.285Z,964.8
2016-12-15T07:06:14.268Z,964.74
2016-12-15T07:07:14.258Z,964.77
2016-12-15T07:08:14.234Z,964.78
2016-12-15T07:09:14.217Z,964.78
2016-12-15T07:10:14.200Z,964.83
2016-12-15T07:11:14.182Z,964.87
2016-12-15T07:12:14.165Z,964.85
2016-12-15T07:13:14.148Z,964.88
2016-12-15T07:14:14.130Z,964.91
2016-12-15T07:15:14.112Z,964.92
2016-12-15T07:16:14.096Z,964.92
2016-12-15T07:17:14.079Z,964.94
2016-12-15T07:18:14.061Z,964.94
2016-12-15T07:19:14.044Z,964.96
2016-12-15T07:20:14.028Z,964.96
2016-12-15T07:21:14.010Z,964.97
2016-12-15T07:22:13.992Z,964.96
2016-12-15T07:23:13.976Z,965.02
2016-12-15T07:24:13.959Z,964.96
2016-12-15T07:25:13.941Z,965.01
2016-12-15T07:26:13.924Z,964.99
2016-12-15T07:27:13.907Z,965
2016-12-15T07:28:13.890Z,965.02
2016-12-15T07:29:13.873Z,965.02
2016-12-15T07:30:13.856Z,965.09
2016-12-15T07:31:13.839Z,965.04
2016-12-15T07:32:13.821Z,965.09
2016-12-15T07:33:13.805Z,965.15
2016-12-15T07:34:13.788Z,965.1
2016-12-15T07:35:13.772Z,965.1
2016-12-15T07:36:13.753Z,965.08
2016-12-15T07:37:13.736Z,965.12
2016-12-15T07:38:13.720Z,965.12
2016-12-15T07:39:13.701Z,965.16
2016-12-15T07:40:13.684Z,965.21
2016-12-15T07:41:13.668Z,965.19
2016-12-15T07:42:13.649Z,965.19
2016-12-15T07:43:13.632Z,965.19
2016-12-15T07:44:13.616Z,965.21
2016-12-15T07:45:13.599Z,965.2
2016-12-15T07:46:13.581Z,965.18
2016-12-15T07:47:13.564Z,965.2
2016-12-15T07:48:13.547Z,965.19
2016-12-15T07:49:13.531Z,965.17
2016-12-15T07:50:13.513Z,965.18
2016-12-15T07:51:13.495Z,965.16
2016-12-15T07:52:13.478Z,965.2
2016-12-15T07:53:13.461Z,965.19
2016-12-15T07:54:13.443Z,965.16
2016-12-15T07:55:13.426Z,965.23
2016-12-15T07:56:13.410Z,965.21
2016-12-15T07:57:13.392Z,965.2
2016-12-15T07:58:13.375Z,965.21
2016-12-15T07:59:13.358Z,965.19
2016-12-15T08:00:13.342Z,965.18
2016-12-15T08:01:13.325Z,965.21
2016-12-15T08:02:13.307Z,965.2
2016-12-15T08:03:13.289Z,965.19
2016-12-15T08:04:13.273Z,965.16
2016-12-15T08:05:13.255Z,965.23
2016-12-15T08:06:13.238Z,965.16
2016-12-15T08:07:13.220Z,965.19
2016-12-15T08:08:13.204Z,965.2
2016-12-15T08:09:13.187Z,965.2
2016-12-15T08:10:13.170Z,965.22
2016-12-15T08:11:13.153Z,965.24
2016-12-15T08:12:13.140Z,965.25
2016-12-15T08:13:13.120Z,965.27
2016-12-15T08:14:13.101Z,965.28
2016-12-15T08:15:13.085Z,965.24
2016-12-15T08:16:13.066Z,965.28
2016-12-15T08:17:13.050Z,965.28
2016-12-15T08:18:13.033Z,965.28
2016-12-15T08:19:13.016Z,965.33
2016-12-15T08:20:12.999Z,965.24
2016-12-15T08:21:12.982Z,965.23
2016-12-15T08:22:12.965Z,965.31
2016-12-15T08:23:12.948Z,965.33
2016-12-15T08:24:12.931Z,965.32
2016-12-15T08:25:12.913Z,965.37
2016-12-15T08:26:12.897Z,965.44
2016-12-15T08:27:12.879Z,965.43
2016-12-15T08:28:12.862Z,965.43
2016-12-15T08:29:12.849Z,965.44
2016-12-15T08:30:12.828Z,965.42
2016-12-15T08:31:12.811Z,965.51
2016-12-15T08:32:12.794Z,965.51
2016-12-15T08:33:12.777Z,965.52
2016-12-15T08:34:12.760Z,965.54
2016-12-15T08:35:12.744Z,965.55
2016-12-15T08:36:12.725Z,965.55
2016-12-15T08:37:12.709Z,965.57
2016-12-15T08:38:12.692Z,965.61
2016-12-15T08:39:12.675Z,965.56
2016-12-15T08:40:12.659Z,965.55
2016-12-15T08:41:12.643Z,965.55
2016-12-15T08:42:12.625Z,965.57
2016-12-15T08:43:12.606Z,965.6
2016-12-15T08:44:12.591Z,965.54
2016-12-15T08:45:12.575Z,965.57
2016-12-15T08:46:12.557Z,965.55
2016-12-15T08:47:12.540Z,965.52
2016-12-15T08:48:12.523Z,965.58
2016-12-15T08:49:12.505Z,965.58
2016-12-15T08:50:12.488Z,965.57
2016-12-15T08:51:12.471Z,965.52
2016-12-15T08:52:12.455Z,965.6
2016-12-15T08:53:12.438Z,965.56
2016-12-15T08:54:12.424Z,965.58
2016-12-15T08:55:12.404Z,965.6
2016-12-15T08:56:12.388Z,965.63
2016-12-15T08:57:12.370Z,965.6
2016-12-15T08:58:12.354Z,965.61
2016-12-15T08:59:12.337Z,965.61
2016-12-15T09:00:12.320Z,965.64
2016-12-15T09:01:12.303Z,965.63
2016-12-15T09:02:12.287Z,965.63
2016-12-15T09:03:12.271Z,965.61
2016-12-15T09:04:12.253Z,965.62
2016-12-15T09:05:12.236Z,965.64
2016-12-15T09:06:12.220Z,965.65
2016-12-15T09:07:12.203Z,965.63
2016-12-15T09:08:12.187Z,965.65
2016-12-15T09:09:12.171Z,965.67
2016-12-15T09:10:12.154Z,965.68
2016-12-15T09:11:12.136Z,965.68
2016-12-15T09:12:12.120Z,965.71
2016-12-15T09:13:12.104Z,965.68
2016-12-15T09:14:12.087Z,965.68
2016-12-15T09:15:12.070Z,965.69
2016-12-15T09:16:12.054Z,965.72
2016-12-15T09:17:12.037Z,965.67
2016-12-15T09:18:12.021Z,965.67
2016-12-15T09:19:12.004Z,965.68
2016-12-15T09:20:11.987Z,965.7
2016-12-15T09:21:11.971Z,965.66
2016-12-15T09:22:11.953Z,965.62
2016-12-15T09:23:11.949Z,965.57
2016-12-15T09:24:11.921Z,965.62
2016-12-15T09:25:11.904Z,965.61
2016-12-15T09:26:11.887Z,965.63
2016-12-15T09:27:11.871Z,965.56
2016-12-15T09:28:11.854Z,965.6
2016-12-15T09:29:11.836Z,965.59
2016-12-15T09:30:11.822Z,965.61
2016-12-15T09:31:11.804Z,965.63
2016-12-15T09:32:11.789Z,965.61
2016-12-15T09:33:11.771Z,965.62
2016-12-15T09:34:11.755Z,965.59
2016-12-15T09:35:11.739Z,965.63
2016-12-15T09:36:11.722Z,965.59
2016-12-15T09:37:11.704Z,965.58
2016-12-15T09:38:11.689Z,965.6
2016-12-15T09:39:11.673Z,965.63
2016-12-15T09:40:11.655Z,965.61
2016-12-15T09:41:11.640Z,965.58
2016-12-15T09:42:11.623Z,965.56
2016-12-15T09:43:11.608Z,965.58
2016-12-15T09:44:11.591Z,965.62
2016-12-15T09:45:11.574Z,965.58
2016-12-15T09:46:11.557Z,965.61
2016-12-15T09:47:11.542Z,965.55
2016-12-15T09:48:11.525Z,965.58
2016-12-15T09:49:11.509Z,965.6
2016-12-15T09:50:11.494Z,965.63
2016-12-15T09:51:11.476Z,965.6
2016-12-15T09:52:11.460Z,965.61
2016-12-15T09:53:11.444Z,965.6
2016-12-15T09:54:11.432Z,965.63
2016-12-15T09:55:11.411Z,965.58
2016-12-15T09:56:11.396Z,965.57
2016-12-15T09:57:11.380Z,965.53
2016-12-15T09:58:11.363Z,965.56
2016-12-15T09:59:11.347Z,965.58
2016-12-15T10:00:11.330Z,965.54
2016-12-15T10:01:11.317Z,965.51
2016-12-15T10:02:11.298Z,965.48
2016-12-15T10:03:11.281Z,965.5
2016-12-15T10:04:11.266Z,965.46
2016-12-15T10:05:11.250Z,965.43
2016-12-15T10:06:11.234Z,965.48
2016-12-15T10:07:11.218Z,965.46
2016-12-15T10:08:11.201Z,965.4
2016-12-15T10:09:11.188Z,965.37
2016-12-15T10:10:11.172Z,965.37
2016-12-15T10:11:11.154Z,965.34
2016-12-15T10:12:11.139Z,965.33
2016-12-15T10:13:11.122Z,965.3
2016-12-15T10:14:11.105Z,965.31
2016-12-15T10:15:11.090Z,965.3
2016-12-15T10:16:11.073Z,965.23
2016-12-15T10:17:11.058Z,965.27
2016-12-15T10:18:11.042Z,965.22
2016-12-15T10:19:11.026Z,965.26
2016-12-15T10:20:11.011Z,965.26
2016-12-15T10:21:10.994Z,965.27
2016-12-15T10:22:10.979Z,965.24
2016-12-15T10:23:10.963Z,965.24
2016-12-15T10:24:10.945Z,965.24
2016-12-15T10:25:10.931Z,965.26
2016-12-15T10:26:10.916Z,965.25
2016-12-15T10:27:10.900Z,965.25
2016-12-15T10:28:10.884Z,965.3
2016-12-15T10:29:10.868Z,965.26
2016-12-15T10:30:10.854Z,965.28
2016-12-15T10:31:10.838Z,965.3
2016-12-15T10:32:10.821Z,965.31
2016-12-15T10:33:10.806Z,965.31
2016-12-15T10:34:10.790Z,965.32
2016-12-15T10:35:10.774Z,965.35
2016-12-15T10:36:10.758Z,965.34
2016-12-15T10:37:10.743Z,965.34
2016-12-15T10:38:10.728Z,965.33
2016-12-15T10:39:10.711Z,965.36
2016-12-15T10:40:10.697Z,965.37
2016-12-15T10:41:10.681Z,965.33
2016-12-15T10:42:10.666Z,965.38
2016-12-15T10:43:10.651Z,965.35
2016-12-15T10:44:10.635Z,965.35
2016-12-15T10:45:10.620Z,965.34
2016-12-15T10:46:10.603Z,965.35
2016-12-15T10:47:10.590Z,965.35
2016-12-15T10:48:10.573Z,965.35
2016-12-15T10:49:10.559Z,965.33
2016-12-15T10:50:10.542Z,965.33
2016-12-15T10:51:10.526Z,965.32
2016-12-15T10:52:10.511Z,965.34
2016-12-15T10:53:10.495Z,965.34
2016-12-15T10:54:10.481Z,965.34
2016-12-15T10:55:10.484Z,965.36
2016-12-15T10:56:10.449Z,965.33
2016-12-15T10:57:10.433Z,965.35
2016-12-15T10:58:10.421Z,965.31
2016-12-15T10:59:10.402Z,965.31
2016-12-15T11:00:10.387Z,965.35
2016-12-15T11:01:10.371Z,965.35
2016-12-15T11:02:10.356Z,965.3
2016-12-15T11:03:10.341Z,965.35
2016-12-15T11:04:10.326Z,965.32
2016-12-15T11:05:10.309Z,965.29
2016-12-15T11:06:10.295Z,965.32
2016-12-15T11:07:10.281Z,965.32
2016-12-15T11:08:10.264Z,965.33
2016-12-15T11:09:10.249Z,965.28
2016-12-15T11:10:10.234Z,965.28
2016-12-15T11:11:10.219Z,965.27
2016-12-15T11:12:10.203Z,965.29
2016-12-15T11:13:10.189Z,965.28
2016-12-15T11:14:10.173Z,965.27
2016-12-15T11:15:10.158Z,965.22
2016-12-15T11:16:10.143Z,965.22
2016-12-15T11:17:10.129Z,965.2
2016-12-15T11:18:10.113Z,965.21
2016-12-15T11:19:10.098Z,965.22
2016-12-15T11:20:10.083Z,965.2
2016-12-15T11:21:10.069Z,965.2
2016-12-15T11:22:10.055Z,965.19
2016-12-15T11:23:10.038Z,965.17
2016-12-15T11:24:10.024Z,965.16
2016-12-15T11:25:10.010Z,965.18
2016-12-15T11:26:09.993Z,965.14
2016-12-15T11:27:10.000Z,965.1
2016-12-15T11:28:09.966Z,965.07
2016-12-15T11:29:09.950Z,965.11
2016-12-15T11:30:09.934Z,965.1
2016-12-15T11:31:09.921Z,965.12
2016-12-15T11:32:09.918Z,965.18
2016-12-15T11:33:09.889Z,965.15
2016-12-15T11:34:09.874Z,965.14
2016-12-15T11:35:09.860Z,965.16
2016-12-15T11:36:09.845Z,965.15
2016-12-15T11:37:09.830Z,965.18
2016-12-15T11:38:09.815Z,965.14
2016-12-15T11:39:09.801Z,965.08
2016-12-15T11:40:09.785Z,965.08
2016-12-15T11:41:09.772Z,965.09
2016-12-15T11:42:09.755Z,965.05
2016-12-15T11:43:09.742Z,965.04
2016-12-15T11:44:09.727Z,965.03
2016-12-15T11:45:09.711Z,965
2016-12-15T11:46:09.697Z,965
2016-12-15T11:47:09.682Z,965
2016-12-15T11:48:09.666Z,964.97
2016-12-15T11:49:09.651Z,964.99
2016-12-15T11:50:09.638Z,965
2016-12-15T11:51:09.623Z,964.97
2016-12-15T11:52:09.607Z,964.99
2016-12-15T11:53:09.592Z,964.98
2016-12-15T11:54:09.578Z,964.98
2016-12-15T11:55:09.564Z,964.98
2016-12-15T11:56:09.548Z,964.98
2016-12-15T11:57:09.534Z,964.96
2016-12-15T11:58:09.520Z,964.95
2016-12-15T11:59:09.503Z,964.91
2016-12-15T12:00:09.488Z,964.91
2016-12-15T12:01:09.473Z,964.93
2016-12-15T12:02:09.459Z,964.89
2016-12-15T12:03:09.442Z,964.88
2016-12-15T12:04:09.429Z,964.89
2016-12-15T12:05:09.415Z,964.9
2016-12-15T12:06:09.399Z,964.87
2016-12-15T12:07:09.382Z,964.88
2016-12-15T12:08:09.368Z,964.89
2016-12-15T12:09:09.353Z,964.87
2016-12-15T12:10:09.337Z,964.87
2016-12-15T12:11:09.322Z,964.83
2016-12-15T12:12:09.307Z,964.82
2016-12-15T12:13:09.292Z,964.84
2016-12-15T12:14:09.277Z,964.82
2016-12-15T12:15:09.261Z,964.84
2016-12-15T12:16:09.247Z,964.81
2016-12-15T12:17:09.234Z,964.81
2016-12-15T12:18:09.217Z,964.83
2016-12-15T12:19:09.200Z,964.83
2016-12-15T12:20:09.192Z,964.79
2016-12-15T12:21:09.171Z,964.82
2016-12-15T12:22:09.156Z,964.81
2016-12-15T12:23:09.141Z,964.75
2016-12-15T12:24:09.127Z,964.81
2016-12-15T12:25:09.110Z,964.8
2016-12-15T12:26:09.095Z,964.78
2016-12-15T12:27:09.079Z,964.84
2016-12-15T12:28:09.064Z,964.79
2016-12-15T12:29:09.056Z,964.75
2016-12-15T12:30:09.033Z,964.71
2016-12-15T12:31:09.018Z,964.75